createdAt,value
2018-07-15T00:00:50.884Z,83.16
2018-07-15T00:01:50.876Z,83.16
2018-07-15T00:02:50.875Z,84.03
2018-07-15T00:03:50.879Z,84.03
2018-07-15T00:04:50.877Z,83.54
2018-07-15T00:05:50.872Z,83.54
2018-07-15T00:06:50.869Z,83.64
2018-07-15T00:07:50.871Z,83.74
2018-07-15T00:08:50.866Z,83.64
2018-07-15T00:09:50.872Z,83.84
2018-07-15T00:10:50.871Z,83.93
2018-07-15T00:11:50.870Z,83.36
2018-07-15T00:12:50.866Z,83.74
2018-07-15T00:13:50.862Z,83.74
2018-07-15T00:14:50.859Z,83.60
2018-07-15T00:15:50.858Z,83.74
2018-07-15T00:16:50.856Z,83.89
2018-07-15T00:17:50.859Z,84.12
2018-07-15T00:18:50.858Z,83.64
2018-07-15T00:19:50.852Z,84.18
2018-07-15T00:20:50.850Z,83.12
2018-07-15T00:21:50.853Z,84.27
2018-07-15T00:22:50.851Z,83.80
2018-07-15T00:23:50.852Z,84.08
2018-07-15T00:24:50.848Z,84.56
2018-07-15T00:25:50.842Z,84.56
2018-07-15T00:26:50.842Z,84.66
2018-07-15T00:27:50.841Z,85.04
2018-07-15T00:28:50.837Z,84.66
2018-07-15T00:29:50.841Z,84.66
2018-07-15T00:30:50.840Z,84.85
2018-07-15T00:31:50.842Z,84.66
2018-07-15T00:32:50.837Z,84.85
2018-07-15T00:33:50.830Z,84.66
2018-07-15T00:34:50.830Z,84.56
2018-07-15T00:35:50.832Z,84.66
2018-07-15T00:36:50.831Z,84.56
2018-07-15T00:37:50.828Z,84.75
2018-07-15T00:38:50.822Z,84.95
2018-07-15T00:39:50.822Z,84.56
2018-07-15T00:40:50.820Z,84.85
2018-07-15T00:41:50.822Z,84.75
2018-07-15T00:42:50.821Z,84.75
2018-07-15T00:43:50.820Z,84.75
2018-07-15T00:44:50.817Z,84.85
2018-07-15T00:45:50.810Z,84.61
2018-07-15T00:46:50.809Z,84.75
2018-07-15T00:47:50.807Z,84.66
2018-07-15T00:48:50.806Z,84.52
2018-07-15T00:49:50.808Z,84.66
2018-07-15T00:50:50.806Z,84.91
2018-07-15T00:51:50.801Z,84.47
2018-07-15T00:52:50.798Z,84.95
2018-07-15T00:53:50.802Z,84.52
2018-07-15T00:54:50.806Z,84.71
2018-07-15T00:55:50.799Z,84.56
2018-07-15T00:56:50.795Z,84.33
2018-07-15T00:57:50.793Z,84.91
2018-07-15T00:58:50.788Z,85.04
2018-07-15T00:59:50.787Z,85.19
2018-07-15T01:00:50.785Z,84.71
2018-07-15T01:01:50.793Z,84.81
2018-07-15T01:02:50.787Z,84.91
2018-07-15T01:03:50.784Z,85.00
2018-07-15T01:04:50.786Z,84.91
2018-07-15T01:05:50.777Z,85.52
2018-07-15T01:06:50.779Z,85.28
2018-07-15T01:07:50.779Z,85.19
2018-07-15T01:08:50.775Z,85.38
2018-07-15T01:09:50.769Z,85.67
2018-07-15T01:10:50.767Z,85.67
2018-07-15T01:11:50.766Z,85.48
2018-07-15T01:12:50.764Z,85.58
2018-07-15T01:13:50.765Z,85.48
2018-07-15T01:14:50.763Z,85.67
2018-07-15T01:15:50.762Z,85.48
2018-07-15T01:16:50.760Z,85.58
2018-07-15T01:17:50.753Z,86.05
2018-07-15T01:18:50.758Z,85.86
2018-07-15T01:19:50.752Z,85.86
2018-07-15T01:20:50.749Z,86.34
2018-07-15T01:21:50.752Z,86.15
2018-07-15T01:22:50.750Z,86.25
2018-07-15T01:23:50.747Z,85.96
2018-07-15T01:24:50.745Z,85.86
2018-07-15T01:25:50.744Z,86.34
2018-07-15T01:26:50.742Z,86.05
2018-07-15T01:27:50.741Z,86.05
2018-07-15T01:28:50.738Z,85.96
2018-07-15T01:29:50.732Z,86.72
2018-07-15T01:30:50.729Z,86.63
2018-07-15T01:31:50.728Z,86.63
2018-07-15T01:32:50.755Z,86.30
2018-07-15T01:33:50.728Z,86.01
2018-07-15T01:34:50.727Z,86.40
2018-07-15T01:35:50.726Z,86.21
2018-07-15T01:36:50.722Z,86.78
2018-07-15T01:37:50.717Z,86.49
2018-07-15T01:38:50.714Z,86.49
2018-07-15T01:39:50.717Z,86.30
2018-07-15T01:40:50.713Z,86.21
2018-07-15T01:41:50.708Z,86.58
2018-07-15T01:42:50.705Z,86.97
2018-07-15T01:43:50.705Z,87.07
2018-07-15T01:44:50.702Z,86.88
2018-07-15T01:45:50.704Z,87.26
2018-07-15T01:46:50.703Z,86.97
2018-07-15T01:47:50.700Z,87.35
2018-07-15T01:48:50.697Z,87.16
2018-07-15T01:49:50.691Z,87.93
2018-07-15T01:50:50.690Z,87.55
2018-07-15T01:51:50.688Z,87.35
2018-07-15T01:52:50.684Z,87.93
2018-07-15T01:53:50.686Z,88.41
2018-07-15T01:54:50.684Z,87.64
2018-07-15T01:55:50.678Z,87.64
2018-07-15T01:56:50.679Z,87.35
2018-07-15T01:57:50.681Z,88.12
2018-07-15T01:58:50.676Z,88.27
2018-07-15T01:59:50.675Z,88.41
2018-07-15T02:00:50.673Z,88.31
2018-07-15T02:01:50.665Z,87.88
2018-07-15T02:02:50.662Z,87.88
2018-07-15T02:03:50.660Z,88.17
2018-07-15T02:04:50.709Z,88.37
2018-07-15T02:05:50.661Z,88.27
2018-07-15T02:06:50.659Z,88.08
2018-07-15T02:07:50.661Z,88.46
2018-07-15T02:08:50.652Z,88.27
2018-07-15T02:09:50.647Z,88.37
2018-07-15T02:10:50.646Z,88.08
2018-07-15T02:11:50.648Z,88.27
2018-07-15T02:12:50.644Z,88.08
2018-07-15T02:13:50.641Z,88.46
2018-07-15T02:14:50.635Z,88.17
2018-07-15T02:15:50.637Z,87.98
2018-07-15T02:16:50.630Z,87.98
2018-07-15T02:17:50.634Z,87.98
2018-07-15T02:18:50.630Z,88.27
2018-07-15T02:19:50.629Z,88.37
2018-07-15T02:20:50.628Z,88.08
2018-07-15T02:21:50.618Z,88.37
2018-07-15T02:22:50.619Z,88.84
2018-07-15T02:23:50.614Z,88.46
2018-07-15T02:24:50.613Z,88.75
2018-07-15T02:25:50.614Z,89.04
2018-07-15T02:26:50.610Z,89.13
2018-07-15T02:27:50.605Z,89.42
2018-07-15T02:28:50.604Z,89.23
2018-07-15T02:29:50.603Z,89.32
2018-07-15T02:30:50.605Z,89.61
2018-07-15T02:31:50.609Z,89.42
2018-07-15T02:32:50.597Z,89.42
2018-07-15T02:33:50.590Z,89.32
2018-07-15T02:34:50.590Z,89.42
2018-07-15T02:35:50.590Z,89.42
2018-07-15T02:36:50.637Z,89.61
2018-07-15T02:37:50.585Z,89.51
2018-07-15T02:38:50.582Z,89.61
2018-07-15T02:39:50.581Z,89.90
2018-07-15T02:40:50.578Z,89.80
2018-07-15T02:41:50.571Z,89.80
2018-07-15T02:42:50.571Z,90.19
2018-07-15T02:43:50.572Z,90.28
2018-07-15T02:44:50.571Z,90.38
2018-07-15T02:45:50.564Z,90.57
2018-07-15T02:46:50.584Z,90.47
2018-07-15T02:47:50.563Z,90.67
2018-07-15T02:48:50.553Z,90.76
2018-07-15T02:49:50.553Z,90.67
2018-07-15T02:50:50.553Z,90.57
2018-07-15T02:51:50.549Z,90.19
2018-07-15T02:52:50.551Z,90.67
2018-07-15T02:53:50.540Z,90.57
2018-07-15T02:54:50.537Z,89.80
2018-07-15T02:55:50.535Z,89.80
2018-07-15T02:56:50.540Z,90.09
2018-07-15T02:57:50.533Z,90.00
2018-07-15T02:58:50.532Z,90.00
2018-07-15T02:59:50.525Z,90.28
2018-07-15T03:00:50.526Z,90.38
2018-07-15T03:01:50.525Z,90.19
2018-07-15T03:02:50.522Z,90.05
2018-07-15T03:03:50.521Z,89.80
2018-07-15T03:04:50.517Z,89.61
2018-07-15T03:05:50.510Z,89.47
2018-07-15T03:06:50.507Z,89.51
2018-07-15T03:07:50.504Z,89.42
2018-07-15T03:08:50.502Z,89.51
2018-07-15T03:09:50.502Z,89.42
2018-07-15T03:10:50.500Z,89.61
2018-07-15T03:11:50.500Z,89.47
2018-07-15T03:12:50.497Z,89.51
2018-07-15T03:13:50.489Z,89.61
2018-07-15T03:14:50.491Z,90.14
2018-07-15T03:15:50.487Z,89.47
2018-07-15T03:16:50.486Z,89.47
2018-07-15T03:17:50.478Z,88.99
2018-07-15T03:18:50.476Z,88.90
2018-07-15T03:19:50.489Z,89.09
2018-07-15T03:20:50.469Z,89.09
2018-07-15T03:21:50.471Z,88.80
2018-07-15T03:22:50.469Z,89.28
2018-07-15T03:23:50.468Z,88.61
2018-07-15T03:24:50.464Z,89.37
2018-07-15T03:25:50.456Z,89.57
2018-07-15T03:26:50.457Z,89.47
2018-07-15T03:27:50.452Z,89.66
2018-07-15T03:28:50.448Z,90.05
2018-07-15T03:29:50.450Z,89.72
2018-07-15T03:30:50.449Z,90.09
2018-07-15T03:31:50.442Z,90.19
2018-07-15T03:32:50.438Z,90.29
2018-07-15T03:33:50.441Z,90.86
2018-07-15T03:34:50.438Z,90.39
2018-07-15T03:35:50.435Z,90.48
2018-07-15T03:36:50.431Z,90.58
2018-07-15T03:37:50.425Z,90.48
2018-07-15T03:38:50.423Z,90.67
2018-07-15T03:39:50.428Z,90.96
2018-07-15T03:40:50.420Z,91.25
2018-07-15T03:41:50.415Z,91.25
2018-07-15T03:42:50.412Z,90.96
2018-07-15T03:43:50.409Z,90.96
2018-07-15T03:44:50.405Z,90.96
2018-07-15T03:45:50.409Z,91.05
2018-07-15T03:46:50.405Z,90.86
2018-07-15T03:47:50.400Z,91.63
2018-07-15T03:48:50.397Z,91.72
2018-07-15T03:49:50.397Z,91.53
2018-07-15T03:50:50.395Z,92.15
2018-07-15T03:51:50.391Z,92.54
2018-07-15T03:52:50.388Z,92.35
2018-07-15T03:53:50.381Z,92.35
2018-07-15T03:54:50.378Z,92.35
2018-07-15T03:55:50.375Z,92.44
2018-07-15T03:56:50.372Z,92.54
2018-07-15T03:57:50.374Z,92.54
2018-07-15T03:58:50.377Z,92.15
2018-07-15T03:59:50.370Z,92.06
2018-07-15T04:00:50.532Z,92.35
2018-07-15T04:01:50.359Z,91.67
2018-07-15T04:02:50.356Z,92.35
2018-07-15T04:03:50.358Z,91.67
2018-07-15T04:04:50.356Z,92.35
2018-07-15T04:05:50.349Z,91.58
2018-07-15T04:06:50.346Z,92.15
2018-07-15T04:07:50.344Z,91.49
2018-07-15T04:08:50.393Z,91.49
2018-07-15T04:09:50.344Z,91.86
2018-07-15T04:10:50.338Z,91.96
2018-07-15T04:11:50.336Z,91.43
2018-07-15T04:12:50.333Z,91.72
2018-07-15T04:13:50.326Z,91.53
2018-07-15T04:14:50.328Z,91.34
2018-07-15T04:15:50.322Z,91.05
2018-07-15T04:16:50.318Z,91.53
2018-07-15T04:17:50.320Z,90.86
2018-07-15T04:18:50.320Z,91.05
2018-07-15T04:19:50.310Z,91.43
2018-07-15T04:20:50.308Z,91.34
2018-07-15T04:21:50.310Z,90.86
2018-07-15T04:22:50.308Z,90.47
2018-07-15T04:23:50.304Z,90.95
2018-07-15T04:24:50.301Z,91.34
2018-07-15T04:25:50.296Z,91.14
2018-07-15T04:26:50.292Z,91.43
2018-07-15T04:27:50.290Z,91.34
2018-07-15T04:28:50.287Z,91.05
2018-07-15T04:29:50.289Z,91.05
2018-07-15T04:30:50.287Z,90.19
2018-07-15T04:31:50.285Z,90.67
2018-07-15T04:32:50.282Z,90.95
2018-07-15T04:33:50.276Z,91.43
2018-07-15T04:34:50.273Z,91.05
2018-07-15T04:35:50.275Z,90.57
2018-07-15T04:36:50.274Z,90.09
2018-07-15T04:37:50.274Z,90.19
2018-07-15T04:38:50.261Z,89.71
2018-07-15T04:39:50.260Z,90.47
2018-07-15T04:40:50.256Z,89.80
2018-07-15T04:41:50.258Z,89.85
2018-07-15T04:42:50.256Z,89.47
2018-07-15T04:43:50.279Z,89.56
2018-07-15T04:44:50.254Z,89.18
2018-07-15T04:45:50.246Z,89.56
2018-07-15T04:46:50.244Z,89.08
2018-07-15T04:47:50.241Z,88.89
2018-07-15T04:48:50.240Z,89.37
2018-07-15T04:49:50.241Z,88.70
2018-07-15T04:50:50.247Z,89.37
2018-07-15T04:51:50.232Z,88.02
2018-07-15T04:52:50.229Z,89.27
2018-07-15T04:53:50.232Z,89.03
2018-07-15T04:54:50.229Z,89.56
2018-07-15T04:55:50.229Z,89.32
2018-07-15T04:56:50.225Z,90.28
2018-07-15T04:57:50.223Z,89.89
2018-07-15T04:58:50.217Z,90.28
2018-07-15T04:59:50.215Z,89.89
2018-07-15T05:00:50.211Z,90.32
2018-07-15T05:01:50.255Z,89.55
2018-07-15T05:02:50.214Z,89.17
2018-07-15T05:03:50.212Z,88.73
2018-07-15T05:04:50.209Z,88.35
2018-07-15T05:05:50.204Z,88.59
2018-07-15T05:06:50.203Z,87.82
2018-07-15T05:07:50.210Z,87.05
2018-07-15T05:08:50.206Z,86.42
2018-07-15T05:09:50.202Z,86.18
2018-07-15T05:10:50.202Z,84.77
2018-07-15T05:11:50.203Z,84.39
2018-07-15T05:12:50.204Z,83.37
2018-07-15T05:13:50.209Z,82.35
2018-07-15T05:14:50.213Z,80.94
2018-07-15T05:15:50.212Z,80.31
2018-07-15T05:16:50.214Z,79.14
2018-07-15T05:17:50.212Z,77.25
2018-07-15T05:18:50.213Z,75.45
2018-07-15T05:19:50.215Z,73.68
2018-07-15T05:20:50.217Z,71.44
2018-07-15T05:21:50.227Z,69.15
2018-07-15T05:22:50.228Z,67.44
2018-07-15T05:23:50.228Z,65.47
2018-07-15T05:24:50.235Z,64.43
2018-07-15T05:25:50.238Z,62.52
2018-07-15T05:26:50.243Z,61.09
2018-07-15T05:27:50.248Z,60.05
2018-07-15T05:28:50.251Z,59.89
2018-07-15T05:29:50.251Z,59.05
2018-07-15T05:30:50.256Z,57.32
2018-07-15T05:31:50.261Z,56.27
2018-07-15T05:32:50.268Z,54.94
2018-07-15T05:33:50.275Z,54.28
2018-07-15T05:34:50.342Z,53.24
2018-07-15T05:35:50.284Z,52.19
2018-07-15T05:36:50.289Z,51.82
2018-07-15T05:37:50.290Z,51.04
2018-07-15T05:38:50.296Z,50.10
2018-07-15T05:39:50.307Z,49.14
2018-07-15T05:40:50.314Z,48.87
2018-07-15T05:41:50.315Z,48.19
2018-07-15T05:42:50.320Z,47.41
2018-07-15T05:43:50.328Z,47.14
2018-07-15T05:44:50.333Z,46.75
2018-07-15T05:45:50.345Z,46.57
2018-07-15T05:46:50.352Z,46.08
2018-07-15T05:47:50.358Z,45.20
2018-07-15T05:48:50.369Z,44.23
2018-07-15T05:49:50.368Z,44.01
2018-07-15T05:50:50.377Z,44.81
2018-07-15T05:51:50.419Z,44.54
2018-07-15T05:52:50.389Z,44.05
2018-07-15T05:53:50.402Z,43.95
2018-07-15T05:54:50.409Z,44.17
2018-07-15T05:55:50.411Z,43.60
2018-07-15T05:56:50.465Z,43.12
2018-07-15T05:57:50.457Z,42.94
2018-07-15T05:58:50.440Z,42.47
2018-07-15T05:59:50.448Z,41.90
2018-07-15T06:00:50.456Z,41.51
2018-07-15T06:01:50.458Z,41.14
2018-07-15T06:02:50.486Z,40.86
2018-07-15T06:03:50.525Z,40.27
2018-07-15T06:04:50.492Z,40.35
2018-07-15T06:05:50.499Z,40.16
2018-07-15T06:06:50.506Z,40.23
2018-07-15T06:07:50.516Z,40.82
2018-07-15T06:08:50.525Z,40.25
2018-07-15T06:09:50.531Z,40.25
2018-07-15T06:10:50.644Z,39.58
2018-07-15T06:11:50.556Z,39.45
2018-07-15T06:12:50.564Z,39.66
2018-07-15T06:13:50.579Z,39.90
2018-07-15T06:14:50.577Z,39.32
2018-07-15T06:15:50.600Z,38.76
2018-07-15T06:16:50.597Z,38.56
2018-07-15T06:17:50.611Z,37.61
2018-07-15T06:18:50.622Z,37.51
2018-07-15T06:19:50.633Z,36.63
2018-07-15T06:20:50.647Z,37.02
2018-07-15T06:21:50.650Z,36.84
2018-07-15T06:22:50.767Z,36.35
2018-07-15T06:23:50.670Z,36.57
2018-07-15T06:24:50.682Z,36.48
2018-07-15T06:25:50.697Z,36.09
2018-07-15T06:26:50.708Z,35.71
2018-07-15T06:27:50.714Z,35.04
2018-07-15T06:28:50.723Z,34.56
2018-07-15T06:29:50.742Z,34.27
2018-07-15T06:30:50.752Z,34.10
2018-07-15T06:31:50.832Z,34.49
2018-07-15T06:32:50.775Z,35.03
2018-07-15T06:33:50.782Z,36.22
2018-07-15T06:34:50.794Z,36.23
2018-07-15T06:35:50.806Z,36.55
2018-07-15T06:36:50.818Z,36.27
2018-07-15T06:37:50.835Z,36.00
2018-07-15T06:38:50.846Z,35.33
2018-07-15T06:39:50.860Z,34.48
2018-07-15T06:40:50.872Z,34.30
2018-07-15T06:41:50.879Z,33.31
2018-07-15T06:42:50.893Z,33.42
2018-07-15T06:43:50.908Z,33.44
2018-07-15T06:44:50.921Z,32.88
2018-07-15T06:45:50.928Z,32.20
2018-07-15T06:46:50.942Z,31.92
2018-07-15T06:47:50.954Z,31.44
2018-07-15T06:48:50.966Z,30.52
2018-07-15T06:49:50.985Z,31.29
2018-07-15T06:50:50.999Z,31.31
2018-07-15T06:51:51.012Z,31.20
2018-07-15T06:52:51.026Z,31.29
2018-07-15T06:53:51.068Z,32.10
2018-07-15T06:54:51.047Z,31.32
2018-07-15T06:55:51.104Z,31.04
2018-07-15T06:56:51.077Z,30.25
2018-07-15T06:57:51.092Z,30.50
2018-07-15T06:58:51.110Z,30.58
2018-07-15T06:59:51.118Z,31.35
2018-07-15T07:00:51.133Z,31.84
2018-07-15T07:01:51.148Z,31.74
2018-07-15T07:02:51.163Z,31.93
2018-07-15T07:03:51.177Z,32.32
2018-07-15T07:04:51.192Z,32.03
2018-07-15T07:05:51.201Z,32.22
2018-07-15T07:06:51.214Z,31.62
2018-07-15T07:07:51.235Z,32.22
2018-07-15T07:08:51.243Z,31.93
2018-07-15T07:09:51.263Z,32.04
2018-07-15T07:10:51.277Z,31.32
2018-07-15T07:11:51.291Z,31.71
2018-07-15T07:12:51.304Z,31.32
2018-07-15T07:13:51.315Z,31.04
2018-07-15T07:14:51.331Z,30.16
2018-07-15T07:15:51.347Z,29.77
2018-07-15T07:16:51.361Z,29.66
2018-07-15T07:17:51.372Z,29.50
2018-07-15T07:18:51.386Z,29.33
2018-07-15T07:19:51.401Z,28.73
2018-07-15T07:20:51.415Z,28.35
2018-07-15T07:21:51.436Z,27.94
2018-07-15T07:22:51.450Z,28.25
2018-07-15T07:23:51.466Z,28.13
2018-07-15T07:24:51.479Z,28.69
2018-07-15T07:25:51.491Z,28.56
2018-07-15T07:26:51.509Z,28.79
2018-07-15T07:27:51.520Z,28.72
2018-07-15T07:28:51.576Z,28.23
2018-07-15T07:29:51.553Z,28.15
2018-07-15T07:30:51.569Z,28.00
2018-07-15T07:31:51.582Z,28.28
2018-07-15T07:32:51.602Z,28.31
2018-07-15T07:33:51.615Z,28.00
2018-07-15T07:34:51.630Z,27.90
2018-07-15T07:35:51.647Z,27.90
2018-07-15T07:36:51.663Z,27.90
2018-07-15T07:37:51.673Z,27.72
2018-07-15T07:38:51.789Z,27.04
2018-07-15T07:39:51.704Z,27.14
2018-07-15T07:40:51.718Z,27.04
2018-07-15T07:41:51.746Z,26.33
2018-07-15T07:42:51.756Z,25.23
2018-07-15T07:43:51.771Z,25.84
2018-07-15T07:44:51.785Z,26.03
2018-07-15T07:45:51.798Z,25.74
2018-07-15T07:46:51.848Z,25.57
2018-07-15T07:47:51.833Z,25.10
2018-07-15T07:48:51.848Z,25.99
2018-07-15T07:49:51.860Z,26.60
2018-07-15T07:50:51.876Z,25.98
2018-07-15T07:51:51.893Z,25.89
2018-07-15T07:52:51.908Z,26.66
2018-07-15T07:53:51.929Z,27.47
2018-07-15T07:54:51.945Z,26.20
2018-07-15T07:55:51.962Z,25.44
2018-07-15T07:56:51.977Z,25.44
2018-07-15T07:57:51.988Z,25.37
2018-07-15T07:58:52.003Z,24.66
2018-07-15T07:59:52.019Z,24.58
2018-07-15T08:00:52.035Z,24.07
2018-07-15T08:01:52.110Z,24.08
2018-07-15T08:02:52.072Z,23.93
2018-07-15T08:03:52.084Z,24.32
2018-07-15T08:04:52.099Z,24.92
2018-07-15T08:05:52.120Z,23.93
2018-07-15T08:06:52.137Z,23.25
2018-07-15T08:07:52.155Z,24.32
2018-07-15T08:08:52.170Z,24.54
2018-07-15T08:09:52.182Z,24.25
2018-07-15T08:10:52.199Z,23.68
2018-07-15T08:11:52.217Z,23.67
2018-07-15T08:12:52.231Z,23.67
2018-07-15T08:13:52.250Z,23.37
2018-07-15T08:14:52.268Z,23.63
2018-07-15T08:15:52.284Z,24.18
2018-07-15T08:16:52.300Z,25.48
2018-07-15T08:17:52.314Z,25.51
2018-07-15T08:18:52.329Z,24.66
2018-07-15T08:19:52.351Z,24.19
2018-07-15T08:20:52.366Z,23.21
2018-07-15T08:21:52.381Z,22.80
2018-07-15T08:22:52.396Z,23.00
2018-07-15T08:23:52.414Z,23.32
2018-07-15T08:24:52.430Z,22.81
2018-07-15T08:25:52.452Z,22.59
2018-07-15T08:26:52.470Z,22.56
2018-07-15T08:27:52.486Z,23.18
2018-07-15T08:28:52.504Z,23.11
2018-07-15T08:29:52.516Z,23.04
2018-07-15T08:30:52.532Z,23.25
2018-07-15T08:31:52.549Z,23.04
2018-07-15T08:32:52.566Z,22.67
2018-07-15T08:33:52.588Z,21.35
2018-07-15T08:34:52.626Z,22.05
2018-07-15T08:35:52.620Z,22.34
2018-07-15T08:36:52.635Z,21.48
2018-07-15T08:37:52.657Z,21.39
2018-07-15T08:38:52.675Z,22.30
2018-07-15T08:39:52.694Z,22.19
2018-07-15T08:40:52.722Z,22.67
2018-07-15T08:41:52.728Z,22.78
2018-07-15T08:42:52.741Z,22.11
2018-07-15T08:43:52.759Z,21.25
2018-07-15T08:44:52.775Z,19.98
2018-07-15T08:45:52.859Z,19.67
2018-07-15T08:46:52.816Z,20.92
2018-07-15T08:47:52.837Z,21.51
2018-07-15T08:48:52.852Z,22.51
2018-07-15T08:49:52.867Z,22.83
2018-07-15T08:50:52.888Z,22.64
2018-07-15T08:51:52.908Z,23.33
2018-07-15T08:52:52.925Z,24.43
2018-07-15T08:53:52.940Z,24.22
2018-07-15T08:54:52.959Z,24.77
2018-07-15T08:55:52.977Z,25.46
2018-07-15T08:56:52.995Z,25.39
2018-07-15T08:57:53.019Z,25.16
2018-07-15T08:58:53.038Z,25.35
2018-07-15T08:59:53.058Z,26.24
2018-07-15T09:00:53.075Z,25.72
2018-07-15T09:01:53.093Z,26.32
2018-07-15T09:02:53.107Z,26.66
2018-07-15T09:03:53.123Z,25.12
2018-07-15T09:04:53.141Z,24.44
2018-07-15T09:05:53.164Z,23.74
2018-07-15T09:06:53.183Z,22.95
2018-07-15T09:07:53.196Z,23.86
2018-07-15T09:08:53.216Z,25.23
2018-07-15T09:09:53.237Z,26.15
2018-07-15T09:10:53.255Z,25.57
2018-07-15T09:11:53.272Z,25.40
2018-07-15T09:12:53.289Z,25.65
2018-07-15T09:13:53.306Z,26.14
2018-07-15T09:14:53.322Z,26.77
2018-07-15T09:15:53.343Z,25.99
2018-07-15T09:16:53.358Z,25.12
2018-07-15T09:17:53.382Z,24.63
2018-07-15T09:18:53.400Z,24.22
2018-07-15T09:19:53.417Z,23.99
2018-07-15T09:20:53.435Z,24.88
2018-07-15T09:21:53.532Z,24.68
2018-07-15T09:22:53.467Z,25.08
2018-07-15T09:23:53.492Z,26.12
2018-07-15T09:24:53.509Z,27.09
2018-07-15T09:25:53.522Z,27.68
2018-07-15T09:26:53.539Z,27.92
2018-07-15T09:27:53.576Z,27.52
2018-07-15T09:28:53.575Z,27.08
2018-07-15T09:29:53.597Z,25.82
2018-07-15T09:30:53.615Z,25.42
2018-07-15T09:31:53.634Z,24.15
2018-07-15T09:32:53.650Z,24.22
2018-07-15T09:33:53.665Z,24.38
2018-07-15T09:34:53.682Z,25.26
2018-07-15T09:35:53.708Z,25.76
2018-07-15T09:36:53.718Z,26.35
2018-07-15T09:37:53.742Z,26.25
2018-07-15T09:38:53.764Z,26.76
2018-07-15T09:39:53.772Z,26.40
2018-07-15T09:40:53.791Z,25.34
2018-07-15T09:41:53.813Z,24.56
2018-07-15T09:42:53.832Z,24.84
2018-07-15T09:43:53.850Z,24.74
2018-07-15T09:44:53.869Z,24.68
2018-07-15T09:45:53.882Z,24.42
2018-07-15T09:46:53.899Z,23.35
2018-07-15T09:47:53.917Z,23.02
2018-07-15T09:48:53.935Z,23.32
2018-07-15T09:49:53.960Z,23.81
2018-07-15T09:50:53.978Z,23.88
2018-07-15T09:51:53.999Z,23.85
2018-07-15T09:52:54.016Z,25.29
2018-07-15T09:53:54.030Z,25.50
2018-07-15T09:54:54.050Z,25.52
2018-07-15T09:55:54.074Z,25.67
2018-07-15T09:56:54.092Z,25.45
2018-07-15T09:57:54.111Z,25.48
2018-07-15T09:58:54.127Z,25.12
2018-07-15T09:59:54.147Z,25.76
2018-07-15T10:00:54.162Z,26.93
2018-07-15T10:01:54.185Z,27.81
2018-07-15T10:02:54.204Z,28.52
2018-07-15T10:03:54.226Z,27.96
2018-07-15T10:04:54.242Z,27.21
2018-07-15T10:05:54.256Z,26.44
2018-07-15T10:06:54.274Z,25.86
2018-07-15T10:07:54.293Z,24.65
2018-07-15T10:08:54.310Z,24.26
2018-07-15T10:09:54.334Z,24.15
2018-07-15T10:10:54.353Z,24.29
2018-07-15T10:11:54.369Z,24.88
2018-07-15T10:12:54.387Z,25.42
2018-07-15T10:13:54.409Z,24.33
2018-07-15T10:14:54.431Z,24.05
2018-07-15T10:15:54.450Z,24.13
2018-07-15T10:16:54.469Z,24.27
2018-07-15T10:17:54.484Z,25.71
2018-07-15T10:18:54.534Z,27.26
2018-07-15T10:19:54.522Z,28.16
2018-07-15T10:20:54.537Z,28.09
2018-07-15T10:21:54.561Z,28.30
2018-07-15T10:22:54.578Z,28.34
2018-07-15T10:23:54.597Z,26.67
2018-07-15T10:24:54.615Z,25.76
2018-07-15T10:25:54.628Z,25.46
2018-07-15T10:26:54.647Z,25.77
2018-07-15T10:27:54.670Z,25.48
2018-07-15T10:28:54.688Z,25.71
2018-07-15T10:29:54.701Z,25.24
2018-07-15T10:30:54.721Z,24.13
2018-07-15T10:31:54.741Z,23.74
2018-07-15T10:32:54.755Z,23.96
2018-07-15T10:33:54.780Z,25.07
2018-07-15T10:34:54.798Z,26.73
2018-07-15T10:35:54.818Z,27.26
2018-07-15T10:36:54.835Z,27.76
2018-07-15T10:37:54.847Z,27.92
2018-07-15T10:38:54.881Z,26.94
2018-07-15T10:39:54.886Z,26.59
2018-07-15T10:40:54.902Z,25.54
2018-07-15T10:41:54.929Z,24.45
2018-07-15T10:42:54.943Z,24.04
2018-07-15T10:43:54.958Z,24.13
2018-07-15T10:44:54.976Z,24.50
2018-07-15T10:45:55.002Z,24.43
2018-07-15T10:46:55.016Z,24.29
2018-07-15T10:47:55.037Z,24.40
2018-07-15T10:48:55.054Z,24.32
2018-07-15T10:49:55.067Z,24.99
2018-07-15T10:50:55.089Z,24.80
2018-07-15T10:51:55.104Z,24.52
2018-07-15T10:52:55.148Z,24.91
2018-07-15T10:53:55.146Z,24.43
2018-07-15T10:54:55.167Z,24.21
2018-07-15T10:55:55.183Z,24.58
2018-07-15T10:56:55.203Z,25.19
2018-07-15T10:57:55.215Z,24.68
2018-07-15T10:58:55.232Z,25.07
2018-07-15T10:59:55.257Z,25.56
2018-07-15T11:00:55.276Z,25.38
2018-07-15T11:01:55.289Z,25.29
2018-07-15T11:02:55.308Z,25.19
2018-07-15T11:03:55.326Z,25.49
2018-07-15T11:04:55.344Z,25.31
2018-07-15T11:05:55.368Z,24.62
2018-07-15T11:06:55.385Z,24.44
2018-07-15T11:07:55.404Z,23.72
2018-07-15T11:08:55.421Z,23.14
2018-07-15T11:09:55.434Z,22.94
2018-07-15T11:10:55.454Z,22.94
2018-07-15T11:11:55.473Z,23.51
2018-07-15T11:12:55.489Z,23.62
2018-07-15T11:13:55.514Z,23.21
2018-07-15T11:14:55.532Z,23.03
2018-07-15T11:15:55.546Z,23.37
2018-07-15T11:16:55.562Z,24.26
2018-07-15T11:17:55.591Z,25.33
2018-07-15T11:18:55.604Z,25.32
2018-07-15T11:19:55.621Z,25.74
2018-07-15T11:20:55.638Z,26.13
2018-07-15T11:21:55.653Z,25.68
2018-07-15T11:22:55.674Z,26.72
2018-07-15T11:23:55.689Z,27.49
2018-07-15T11:24:55.715Z,28.08
2018-07-15T11:25:55.726Z,28.39
2018-07-15T11:26:55.744Z,28.49
2018-07-15T11:27:55.762Z,28.30
2018-07-15T11:28:55.777Z,28.49
2018-07-15T11:29:55.789Z,28.65
2018-07-15T11:30:55.881Z,29.63
2018-07-15T11:31:55.826Z,29.93
2018-07-15T11:32:55.840Z,30.90
2018-07-15T11:33:55.850Z,30.60
2018-07-15T11:34:55.865Z,30.94
2018-07-15T11:35:55.878Z,30.74
2018-07-15T11:36:55.891Z,31.60
2018-07-15T11:37:55.909Z,32.37
2018-07-15T11:38:55.977Z,33.25
2018-07-15T11:39:55.936Z,33.34
2018-07-15T11:40:55.951Z,33.74
2018-07-15T11:41:55.956Z,34.13
2018-07-15T11:42:55.968Z,33.94
2018-07-15T11:43:55.977Z,33.84
2018-07-15T11:44:55.989Z,33.85
2018-07-15T11:45:56.011Z,34.14
2018-07-15T11:46:56.013Z,33.58
2018-07-15T11:47:56.020Z,33.77
2018-07-15T11:48:56.028Z,33.26
2018-07-15T11:49:56.043Z,33.58
2018-07-15T11:50:56.054Z,33.36
2018-07-15T11:51:56.062Z,33.26
2018-07-15T11:52:56.070Z,33.95
2018-07-15T11:53:56.075Z,33.75
2018-07-15T11:54:56.094Z,33.56
2018-07-15T11:55:56.092Z,33.95
2018-07-15T11:56:56.100Z,33.56
2018-07-15T11:57:56.114Z,33.94
2018-07-15T11:58:56.121Z,33.15
2018-07-15T11:59:56.131Z,33.65
2018-07-15T12:00:56.139Z,33.74
2018-07-15T12:01:56.180Z,33.53
2018-07-15T12:02:56.150Z,33.80
2018-07-15T12:03:56.162Z,33.87
2018-07-15T12:04:56.168Z,34.65
2018-07-15T12:05:56.171Z,34.63
2018-07-15T12:06:56.181Z,34.75
2018-07-15T12:07:56.187Z,35.02
2018-07-15T12:08:56.193Z,35.10
2018-07-15T12:09:56.205Z,35.39
2018-07-15T12:10:56.236Z,35.49
2018-07-15T12:11:56.216Z,35.98
2018-07-15T12:12:56.224Z,35.86
2018-07-15T12:13:56.234Z,36.57
2018-07-15T12:14:56.241Z,36.47
2018-07-15T12:15:56.247Z,36.27
2018-07-15T12:16:56.254Z,36.68
2018-07-15T12:17:56.255Z,36.68
2018-07-15T12:18:56.262Z,35.90
2018-07-15T12:19:56.274Z,36.39
2018-07-15T12:20:56.279Z,36.19
2018-07-15T12:21:56.281Z,35.92
2018-07-15T12:22:56.287Z,35.84
2018-07-15T12:23:56.295Z,36.04
2018-07-15T12:24:56.302Z,35.84
2018-07-15T12:25:56.310Z,35.94
2018-07-15T12:26:56.317Z,35.84
2018-07-15T12:27:56.324Z,35.55
2018-07-15T12:28:56.329Z,34.75
2018-07-15T12:29:56.335Z,34.94
2018-07-15T12:30:56.340Z,34.84
2018-07-15T12:31:56.343Z,34.84
2018-07-15T12:32:56.349Z,34.44
2018-07-15T12:33:56.358Z,34.63
2018-07-15T12:34:56.366Z,34.36
2018-07-15T12:35:56.368Z,34.75
2018-07-15T12:36:56.372Z,34.44
2018-07-15T12:37:56.383Z,34.44
2018-07-15T12:38:56.389Z,34.36
2018-07-15T12:39:56.396Z,34.24
2018-07-15T12:40:56.401Z,34.34
2018-07-15T12:41:56.403Z,34.73
2018-07-15T12:42:56.412Z,34.73
2018-07-15T12:43:56.416Z,34.91
2018-07-15T12:44:56.421Z,34.12
2018-07-15T12:45:56.431Z,34.61
2018-07-15T12:46:56.438Z,35.00
2018-07-15T12:47:56.443Z,35.51
2018-07-15T12:48:56.448Z,35.00
2018-07-15T12:52:56.478Z,36.68
2018-07-15T12:53:56.476Z,35.78
2018-07-15T12:54:56.485Z,35.88
2018-07-15T12:55:56.488Z,35.61